createdAt,value
2022-10-20T00:00:49.550Z,16.85
2022-10-20T00:02:20.844Z,17.30
2022-10-20T00:03:52.172Z,14.11
2022-10-20T00:05:23.459Z,14.44
2022-10-20T00:06:55.146Z,14.59
2022-10-20T00:08:26.790Z,15.40
2022-10-20T00:10:03.395Z,15.32
2022-10-20T00:11:34.747Z,14.10
2022-10-20T00:13:06.150Z,15.52
2022-10-20T00:14:37.443Z,15.01
2022-10-20T00:16:08.633Z,13.88
2022-10-20T00:17:40.244Z,15.52
2022-10-20T00:19:11.630Z,14.83
2022-10-20T00:20:42.908Z,13.06
2022-10-20T00:22:14.458Z,17.02
2022-10-20T00:23:45.885Z,18.25
2022-10-20T00:25:17.367Z,17.36
2022-10-20T00:26:49.177Z,14.78
2022-10-20T00:28:20.761Z,16.38
2022-10-20T00:29:52.395Z,15.38
2022-10-20T00:31:24.029Z,16.13
2022-10-20T00:32:55.483Z,17.92
2022-10-20T00:34:26.790Z,18.01
2022-10-20T00:35:58.155Z,17.57
2022-10-20T00:37:29.554Z,16.91
2022-10-20T00:39:00.734Z,17.42
2022-10-20T00:40:32.166Z,15.59
2022-10-20T00:42:03.394Z,14.23
2022-10-20T00:43:34.759Z,13.32
2022-10-20T00:45:06.101Z,16.05
2022-10-20T00:46:37.320Z,15.14
2022-10-20T00:48:08.750Z,17.17
2022-10-20T00:49:40.135Z,13.83
2022-10-20T00:51:11.695Z,17.73
2022-10-20T00:52:43.025Z,15.36
2022-10-20T00:54:15.284Z,15.39
2022-10-20T00:55:46.936Z,16.96
2022-10-20T00:57:18.404Z,17.06
2022-10-20T00:58:49.698Z,14.45
2022-10-20T01:00:21.195Z,14.25
2022-10-20T01:01:52.718Z,15.63
2022-10-20T01:03:24.351Z,16.62
2022-10-20T01:04:55.968Z,17.50
2022-10-20T01:06:27.324Z,17.60
2022-10-20T01:07:59.481Z,15.40
2022-10-20T01:09:31.118Z,17.62
2022-10-20T01:11:02.477Z,15.32
2022-10-20T01:12:33.775Z,15.97
2022-10-20T01:14:05.332Z,16.18
2022-10-20T01:15:36.658Z,18.07
2022-10-20T01:17:08.281Z,18.09
2022-10-20T01:18:39.946Z,18.40
2022-10-20T01:20:11.307Z,18.44
2022-10-20T01:21:42.747Z,19.15
2022-10-20T01:23:14.089Z,17.78
2022-10-20T01:24:45.729Z,20.64
2022-10-20T01:26:17.002Z,17.83
2022-10-20T01:27:48.356Z,17.47
2022-10-20T01:29:19.844Z,17.22
2022-10-20T01:30:51.250Z,15.83
2022-10-20T01:32:22.617Z,18.24
2022-10-20T01:33:54.118Z,20.01
2022-10-20T01:35:25.628Z,17.07
2022-10-20T01:36:57.007Z,19.34
2022-10-20T01:38:28.518Z,17.94
2022-10-20T01:39:59.889Z,17.06
2022-10-20T01:41:31.376Z,19.08
2022-10-20T01:43:03.014Z,17.91
2022-10-20T01:44:35.213Z,18.70
2022-10-20T01:46:06.879Z,17.55
2022-10-20T01:47:38.789Z,19.14
2022-10-20T01:49:10.584Z,16.12
2022-10-20T01:50:42.250Z,16.88
2022-10-20T01:52:13.473Z,17.07
2022-10-20T01:53:44.782Z,17.32
2022-10-20T01:55:16.162Z,17.86
2022-10-20T01:56:47.763Z,15.42
2022-10-20T01:58:19.229Z,20.32
2022-10-20T01:59:50.700Z,18.15
2022-10-20T02:01:22.110Z,15.79
2022-10-20T02:02:53.403Z,19.32
2022-10-20T02:04:24.780Z,17.84
2022-10-20T02:05:56.329Z,18.40
2022-10-20T02:07:27.669Z,17.86
2022-10-20T02:08:59.176Z,14.06
2022-10-20T02:10:30.785Z,15.85
2022-10-20T02:12:02.261Z,22.57
2022-10-20T02:13:33.969Z,16.46
2022-10-20T02:15:05.778Z,14.94
2022-10-20T02:16:37.308Z,16.57
2022-10-20T02:18:08.665Z,14.40
2022-10-20T02:19:39.967Z,16.08
2022-10-20T02:21:11.207Z,19.20
2022-10-20T02:22:43.020Z,16.95
2022-10-20T02:24:14.252Z,16.64
2022-10-20T02:25:45.523Z,16.12
2022-10-20T02:27:17.088Z,15.50
2022-10-20T02:28:48.602Z,18.62
2022-10-20T02:30:19.942Z,15.74
2022-10-20T02:31:51.592Z,17.52
2022-10-20T02:33:22.899Z,18.85
2022-10-20T02:34:54.250Z,16.04
2022-10-20T02:36:25.736Z,16.10
2022-10-20T02:37:57.300Z,15.76
2022-10-20T02:39:34.105Z,17.83
2022-10-20T02:41:05.589Z,16.76
2022-10-20T02:42:36.923Z,17.61
2022-10-20T02:44:08.252Z,15.26
2022-10-20T02:45:39.537Z,16.57
2022-10-20T02:47:10.909Z,16.18
2022-10-20T02:48:42.480Z,17.09
2022-10-20T02:50:13.641Z,16.30
2022-10-20T02:51:45.073Z,15.63
2022-10-20T02:53:16.847Z,17.60
2022-10-20T02:54:48.544Z,14.73
2022-10-20T02:56:20.182Z,16.60
2022-10-20T02:57:51.587Z,15.85
2022-10-20T02:59:23.288Z,16.75
2022-10-20T03:00:54.736Z,15.31
2022-10-20T03:02:26.630Z,16.13
2022-10-20T03:03:57.995Z,16.53
2022-10-20T03:05:29.378Z,16.46
2022-10-20T03:07:00.983Z,15.76
2022-10-20T03:08:32.376Z,15.90
2022-10-20T03:10:03.703Z,17.97
2022-10-20T03:11:35.410Z,16.24
2022-10-20T03:13:06.667Z,15.54
2022-10-20T03:14:37.882Z,17.05
2022-10-20T03:16:09.445Z,16.44
2022-10-20T03:17:41.761Z,16.62
2022-10-20T03:19:13.003Z,16.99
2022-10-20T03:20:44.634Z,17.80
2022-10-20T03:22:16.109Z,18.18
2022-10-20T03:23:47.566Z,15.47
2022-10-20T03:25:18.989Z,14.80
2022-10-20T03:26:50.803Z,17.66
2022-10-20T03:28:22.070Z,19.69
2022-10-20T03:29:53.757Z,16.85
2022-10-20T03:31:24.994Z,15.55
2022-10-20T03:32:56.849Z,15.31
2022-10-20T03:34:28.346Z,18.85
2022-10-20T03:35:59.733Z,14.83
2022-10-20T03:37:31.381Z,17.31
2022-10-20T03:39:02.867Z,17.17
2022-10-20T03:40:34.365Z,18.34
2022-10-20T03:42:05.682Z,17.11
2022-10-20T03:43:36.898Z,15.07
2022-10-20T03:45:08.237Z,16.24
2022-10-20T03:46:39.825Z,17.96
2022-10-20T03:48:11.291Z,20.10
2022-10-20T03:49:42.805Z,19.88
2022-10-20T03:51:14.046Z,13.58
2022-10-20T03:52:45.475Z,16.09
2022-10-20T03:54:16.734Z,16.51
2022-10-20T03:55:48.586Z,15.93
2022-10-20T03:57:38.184Z,16.56
2022-10-20T03:59:09.991Z,15.28
2022-10-20T04:00:41.235Z,17.10
2022-10-20T04:02:12.375Z,15.85
2022-10-20T04:03:43.755Z,14.53
2022-10-20T04:05:15.076Z,17.40
2022-10-20T04:06:46.469Z,16.42
2022-10-20T04:08:17.866Z,15.56
2022-10-20T04:09:49.111Z,17.01
2022-10-20T04:11:25.413Z,17.47
2022-10-20T04:13:07.939Z,16.80
2022-10-20T04:14:40.532Z,15.19
2022-10-20T04:16:11.719Z,15.89
2022-10-20T04:17:43.255Z,15.63
2022-10-20T04:19:19.726Z,15.72
2022-10-20T04:20:51.082Z,15.93
2022-10-20T04:22:28.144Z,16.68
2022-10-20T04:23:59.571Z,18.46
2022-10-20T04:25:31.055Z,16.86
2022-10-20T04:27:02.593Z,16.82
2022-10-20T04:28:33.915Z,18.02
2022-10-20T04:30:05.237Z,18.52
2022-10-20T04:31:36.567Z,16.71
2022-10-20T04:33:08.277Z,13.38
2022-10-20T04:34:39.938Z,14.77
2022-10-20T04:36:16.423Z,19.04
2022-10-20T04:37:47.854Z,18.92
2022-10-20T04:39:19.380Z,15.83
2022-10-20T04:40:50.849Z,16.01
2022-10-20T04:42:22.251Z,17.40
2022-10-20T04:43:53.515Z,12.77
2022-10-20T04:45:25.185Z,14.82
2022-10-20T04:46:56.471Z,15.20
2022-10-20T04:48:27.909Z,14.03
2022-10-20T04:49:59.158Z,16.11
2022-10-20T04:51:30.947Z,13.34
2022-10-20T04:53:02.821Z,13.72
2022-10-20T04:54:34.463Z,16.43
2022-10-20T04:56:05.710Z,14.54
2022-10-20T04:57:39.589Z,17.67
2022-10-20T04:59:13.778Z,13.62
2022-10-20T05:00:45.758Z,16.29
2022-10-20T05:02:17.411Z,16.11
2022-10-20T05:03:48.674Z,18.39
2022-10-20T05:05:19.991Z,16.42
2022-10-20T05:06:51.552Z,16.37
2022-10-20T05:08:22.921Z,16.55
2022-10-20T05:09:54.311Z,14.12
2022-10-20T05:11:25.900Z,12.91
2022-10-20T05:12:57.964Z,14.70
2022-10-20T05:14:39.450Z,17.80
2022-10-20T05:16:34.598Z,15.19
2022-10-20T05:18:06.370Z,15.96
2022-10-20T05:19:37.720Z,15.87
2022-10-20T05:21:10.091Z,17.90
2022-10-20T05:22:41.686Z,18.34
2022-10-20T05:24:20.888Z,16.12
2022-10-20T05:25:53.571Z,14.20
2022-10-20T05:27:25.279Z,14.44
2022-10-20T05:28:56.849Z,14.40
2022-10-20T05:30:28.547Z,20.93
2022-10-20T05:32:00.121Z,13.11
2022-10-20T05:33:31.469Z,13.12
2022-10-20T05:35:02.944Z,18.44
2022-10-20T05:36:34.658Z,17.39
2022-10-20T05:38:06.073Z,14.83
2022-10-20T05:39:37.539Z,15.33
2022-10-20T05:41:08.976Z,14.22
2022-10-20T05:42:40.671Z,16.41
2022-10-20T05:44:12.013Z,15.22
2022-10-20T05:45:43.611Z,16.03
2022-10-20T05:47:35.125Z,17.40
2022-10-20T05:49:06.972Z,18.32
2022-10-20T05:50:38.882Z,15.35
2022-10-20T05:52:10.817Z,14.19
2022-10-20T05:53:42.419Z,16.87
2022-10-20T05:55:13.963Z,16.20
2022-10-20T05:56:45.610Z,18.21
2022-10-20T05:58:18.577Z,16.30
2022-10-20T05:59:53.474Z,15.31
2022-10-20T06:01:25.380Z,15.79
2022-10-20T06:03:06.839Z,14.46
2022-10-20T06:04:38.265Z,15.23
2022-10-20T06:06:09.451Z,15.41
2022-10-20T06:07:40.800Z,17.82
2022-10-20T06:09:12.615Z,15.99
2022-10-20T06:10:44.088Z,17.25
2022-10-20T06:12:15.472Z,16.82
2022-10-20T06:13:51.715Z,14.13
2022-10-20T06:15:24.839Z,14.55
2022-10-20T06:16:56.562Z,15.62
2022-10-20T06:18:28.296Z,15.81
2022-10-20T06:19:59.960Z,17.04
2022-10-20T06:21:31.423Z,15.43
2022-10-20T06:23:03.092Z,15.04
2022-10-20T06:24:34.297Z,16.60
2022-10-20T06:26:06.223Z,16.42
2022-10-20T06:27:37.852Z,17.74
2022-10-20T06:29:09.188Z,15.01
2022-10-20T06:30:40.922Z,15.06
2022-10-20T06:33:43.914Z,14.48
2022-10-20T06:35:15.577Z,15.66
2022-10-20T06:36:46.930Z,17.58
2022-10-20T06:38:18.219Z,19.37
2022-10-20T06:39:49.591Z,14.13
2022-10-20T06:41:21.328Z,15.42
2022-10-20T06:42:52.725Z,16.31
2022-10-20T06:44:24.002Z,16.49
2022-10-20T06:45:55.673Z,17.18
2022-10-20T06:47:26.917Z,18.92
2022-10-20T06:48:59.013Z,15.39
2022-10-20T06:50:30.968Z,18.61
2022-10-20T06:52:02.368Z,16.87
2022-10-20T06:53:33.853Z,14.77
2022-10-20T06:55:05.428Z,15.64
2022-10-20T06:56:36.834Z,16.68
2022-10-20T06:58:08.124Z,16.64
2022-10-20T06:59:39.521Z,15.62
2022-10-20T07:01:11.284Z,15.48
2022-10-20T07:02:42.645Z,15.76
2022-10-20T07:04:14.001Z,14.71
2022-10-20T07:05:45.598Z,14.89
2022-10-20T07:07:17.618Z,15.76
2022-10-20T07:08:48.992Z,17.38
2022-10-20T07:10:20.431Z,15.90
2022-10-20T07:11:52.497Z,16.57
2022-10-20T07:13:23.753Z,20.11
2022-10-20T07:14:55.141Z,22.32
2022-10-20T07:16:26.457Z,16.21
2022-10-20T07:17:58.027Z,17.42
2022-10-20T07:19:29.658Z,14.08
2022-10-20T07:21:01.106Z,14.80
2022-10-20T07:22:32.638Z,13.10
2022-10-20T07:24:04.124Z,14.33
2022-10-20T07:25:35.698Z,13.93
2022-10-20T07:27:06.933Z,15.17
2022-10-20T07:28:38.266Z,10.72
2022-10-20T07:30:09.669Z,12.75
2022-10-20T07:31:41.084Z,13.14
2022-10-20T07:33:12.721Z,12.29
2022-10-20T07:34:44.186Z,13.24
2022-10-20T07:36:15.528Z,14.00
2022-10-20T07:37:47.368Z,13.47
2022-10-20T07:39:19.000Z,11.60
2022-10-20T07:40:50.813Z,13.10
2022-10-20T07:42:22.055Z,12.21
2022-10-20T07:43:53.421Z,12.25
2022-10-20T07:45:24.766Z,12.74
2022-10-20T07:47:16.253Z,13.10
2022-10-20T07:48:48.109Z,13.29
2022-10-20T07:50:19.352Z,10.19
2022-10-20T07:51:50.803Z,10.64
2022-10-20T07:53:22.175Z,9.84
2022-10-20T07:55:02.496Z,9.58
2022-10-20T07:56:49.137Z,9.13
2022-10-20T07:58:20.491Z,12.93
2022-10-20T07:59:52.037Z,9.97
2022-10-20T08:01:23.656Z,8.92
2022-10-20T08:02:55.268Z,13.26
2022-10-20T08:04:26.713Z,11.50
2022-10-20T08:05:58.159Z,11.81
2022-10-20T08:07:29.427Z,11.68
2022-10-20T08:09:01.046Z,10.64
2022-10-20T08:10:32.745Z,10.51
2022-10-20T08:12:04.087Z,11.51
2022-10-20T08:13:36.577Z,11.09
2022-10-20T08:15:08.426Z,9.71
2022-10-20T08:16:40.112Z,12.39
2022-10-20T08:18:12.423Z,10.35
2022-10-20T08:19:43.738Z,11.01
2022-10-20T08:21:15.505Z,10.60
2022-10-20T08:22:46.845Z,10.11
2022-10-20T08:24:18.225Z,8.89
2022-10-20T08:25:49.790Z,9.20
2022-10-20T08:27:21.389Z,11.46
2022-10-20T08:28:54.478Z,8.48
2022-10-20T08:30:25.921Z,12.09
2022-10-20T08:31:57.283Z,10.20
2022-10-20T08:33:28.865Z,9.99
2022-10-20T08:35:00.443Z,12.00
2022-10-20T08:36:31.994Z,10.46
2022-10-20T08:38:03.445Z,9.84
2022-10-20T08:39:34.919Z,10.88
2022-10-20T08:41:06.722Z,10.24
2022-10-20T08:42:38.628Z,10.44
2022-10-20T08:44:10.322Z,9.52
2022-10-20T08:45:41.985Z,11.60
2022-10-20T08:47:13.428Z,9.57
2022-10-20T08:48:44.921Z,11.19
2022-10-20T08:50:16.571Z,11.14
2022-10-20T08:51:48.337Z,10.73
2022-10-20T08:53:19.842Z,12.30
2022-10-20T08:54:51.323Z,10.06
2022-10-20T08:56:22.808Z,9.24
2022-10-20T08:57:54.414Z,12.05
2022-10-20T08:59:25.799Z,11.11
2022-10-20T09:01:12.301Z,10.89
2022-10-20T09:02:43.766Z,9.87
2022-10-20T09:04:15.366Z,11.24
2022-10-20T09:05:51.980Z,10.65
2022-10-20T09:07:23.455Z,10.95
2022-10-20T09:08:55.310Z,11.65
2022-10-20T09:10:26.638Z,14.28
2022-10-20T09:11:58.143Z,13.14
2022-10-20T09:13:39.794Z,10.79
2022-10-20T09:15:21.735Z,10.44
2022-10-20T09:17:00.402Z,11.55
2022-10-20T09:18:32.264Z,11.62
2022-10-20T09:20:03.678Z,11.57
2022-10-20T09:21:35.501Z,13.15
2022-10-20T09:23:16.614Z,10.93
2022-10-20T09:24:53.832Z,12.54
2022-10-20T09:26:44.941Z,9.67
2022-10-20T09:28:25.014Z,10.66
2022-10-20T09:29:56.421Z,12.03
2022-10-20T09:31:28.046Z,12.04
2022-10-20T09:33:00.041Z,11.04
2022-10-20T09:34:31.729Z,11.41
2022-10-20T09:36:03.348Z,11.58
2022-10-20T09:37:35.135Z,11.84
2022-10-20T09:39:06.764Z,11.11
2022-10-20T09:40:39.999Z,10.09
2022-10-20T09:42:11.902Z,12.01
2022-10-20T09:43:48.382Z,12.30
2022-10-20T09:45:25.145Z,13.13
2022-10-20T09:47:02.059Z,10.55
2022-10-20T09:48:33.587Z,13.13
2022-10-20T09:50:05.174Z,10.20
2022-10-20T09:51:41.764Z,13.72
2022-10-20T09:53:14.217Z,11.70
2022-10-20T09:54:50.664Z,12.39
2022-10-20T09:56:22.043Z,9.65
2022-10-20T09:57:53.723Z,9.80
2022-10-20T09:59:25.103Z,10.18
2022-10-20T10:00:56.680Z,10.37
2022-10-20T10:02:28.562Z,9.51
2022-10-20T10:03:59.959Z,8.58
2022-10-20T10:05:31.682Z,12.68
2022-10-20T10:07:03.173Z,11.50
2022-10-20T10:08:34.956Z,11.71
2022-10-20T10:10:08.455Z,12.40
2022-10-20T10:11:40.746Z,11.98
2022-10-20T10:13:12.238Z,13.96
2022-10-20T10:14:43.676Z,10.15
2022-10-20T10:16:15.317Z,10.38
2022-10-20T10:17:46.827Z,11.93
2022-10-20T10:19:18.332Z,11.32
2022-10-20T10:20:50.371Z,10.17
2022-10-20T10:22:26.822Z,10.76
2022-10-20T10:24:08.636Z,10.62
2022-10-20T10:25:40.022Z,14.60
2022-10-20T10:27:11.917Z,10.03
2022-10-20T10:29:05.982Z,13.46
2022-10-20T10:30:40.721Z,11.86
2022-10-20T10:32:12.810Z,10.08
2022-10-20T10:33:44.228Z,10.73
2022-10-20T10:35:15.675Z,9.65
2022-10-20T10:36:47.214Z,13.52
2022-10-20T10:38:18.746Z,17.91
2022-10-20T10:39:50.495Z,17.45
2022-10-20T10:41:22.082Z,20.73
2022-10-20T10:42:53.424Z,14.82
2022-10-20T10:44:24.863Z,13.31
2022-10-20T10:45:56.417Z,13.29
2022-10-20T10:47:28.060Z,10.29
2022-10-20T10:49:09.764Z,11.59
2022-10-20T10:50:41.183Z,10.97
2022-10-20T10:52:12.499Z,10.24
2022-10-20T10:53:44.274Z,11.40
2022-10-20T10:55:30.610Z,9.50
2022-10-20T10:57:13.889Z,11.25
2022-10-20T10:58:45.771Z,9.41
2022-10-20T11:00:17.081Z,10.75
2022-10-20T11:01:49.344Z,10.12
2022-10-20T11:03:21.189Z,11.60
2022-10-20T11:04:52.726Z,11.31
2022-10-20T11:06:24.425Z,13.27
2022-10-20T11:07:56.000Z,12.09
2022-10-20T11:09:28.048Z,12.54
2022-10-20T11:10:59.740Z,12.28
2022-10-20T11:12:31.320Z,10.74
2022-10-20T11:14:02.835Z,10.75
2022-10-20T11:15:34.578Z,10.99
2022-10-20T11:17:06.209Z,9.87
2022-10-20T11:18:38.852Z,12.32
2022-10-20T11:20:10.743Z,13.68
2022-10-20T11:21:42.385Z,14.22
2022-10-20T11:23:14.156Z,12.02
2022-10-20T11:24:45.511Z,11.67
2022-10-20T11:26:24.230Z,11.75
2022-10-20T11:27:58.260Z,11.63
2022-10-20T11:29:29.746Z,13.32
2022-10-20T11:31:02.252Z,15.51
2022-10-20T11:34:11.083Z,13.84
2022-10-20T11:35:42.441Z,10.87
2022-10-20T11:37:13.935Z,13.20
2022-10-20T11:38:45.832Z,14.29
2022-10-20T11:40:17.464Z,13.97
2022-10-20T11:41:49.300Z,11.83
2022-10-20T11:43:20.829Z,11.46
2022-10-20T11:44:52.342Z,14.14
2022-10-20T11:46:23.745Z,15.26
2022-10-20T11:47:55.057Z,14.66
2022-10-20T11:49:26.349Z,14.82
2022-10-20T11:50:57.793Z,13.54
2022-10-20T11:52:29.460Z,12.75
2022-10-20T11:54:01.764Z,14.18
2022-10-20T11:55:33.340Z,10.61
2022-10-20T11:57:04.923Z,11.45
2022-10-20T11:58:36.360Z,12.38
2022-10-20T12:00:07.987Z,12.46
2022-10-20T12:02:02.597Z,12.37
2022-10-20T12:03:35.404Z,13.00
2022-10-20T12:05:06.799Z,14.79
2022-10-20T12:06:38.986Z,13.43
2022-10-20T12:08:28.139Z,11.46
2022-10-20T12:10:01.561Z,16.04
2022-10-20T12:11:33.066Z,13.76
2022-10-20T12:13:04.742Z,13.70
2022-10-20T12:14:36.078Z,12.60
2022-10-20T12:16:07.712Z,12.12
2022-10-20T12:17:39.562Z,12.50
2022-10-20T12:19:11.277Z,14.20
2022-10-20T12:20:42.777Z,13.09
2022-10-20T12:22:14.115Z,13.22
2022-10-20T12:23:45.741Z,17.12
2022-10-20T12:25:17.320Z,14.63
2022-10-20T12:26:49.259Z,12.09
2022-10-20T12:28:20.876Z,13.01
2022-10-20T12:29:52.365Z,12.46
2022-10-20T12:31:23.781Z,12.99
2022-10-20T12:32:55.464Z,17.10
2022-10-20T12:34:26.801Z,13.81
2022-10-20T12:35:58.504Z,14.49
2022-10-20T12:37:30.023Z,14.77
2022-10-20T12:39:01.629Z,14.15
2022-10-20T12:40:33.252Z,14.82
2022-10-20T12:42:04.813Z,14.86
2022-10-20T12:43:36.327Z,13.19
2022-10-20T12:45:08.114Z,15.29
2022-10-20T12:46:39.633Z,15.52
2022-10-20T12:48:11.373Z,13.84
2022-10-20T12:49:43.052Z,16.62
2022-10-20T12:51:14.914Z,14.48
2022-10-20T12:52:46.413Z,16.67
2022-10-20T12:54:17.734Z,16.85
2022-10-20T12:55:49.236Z,15.69
2022-10-20T12:57:20.776Z,13.99
2022-10-20T12:58:52.392Z,15.29
2022-10-20T13:00:23.904Z,15.14
2022-10-20T13:01:55.399Z,14.14
2022-10-20T13:03:27.030Z,16.28
2022-10-20T13:04:58.491Z,16.17
2022-10-20T13:06:30.126Z,15.06
2022-10-20T13:08:01.588Z,14.78
2022-10-20T13:09:32.904Z,19.89
2022-10-20T13:11:04.293Z,17.37
2022-10-20T13:12:35.921Z,16.15
2022-10-20T13:14:07.909Z,15.52
2022-10-20T13:15:39.425Z,16.70
2022-10-20T13:17:11.150Z,17.37
2022-10-20T13:18:42.998Z,16.34
2022-10-20T13:20:14.502Z,16.58
2022-10-20T13:21:49.464Z,17.37
2022-10-20T13:23:21.301Z,16.67
2022-10-20T13:24:56.003Z,17.06
2022-10-20T13:26:28.303Z,18.87
2022-10-20T13:27:59.679Z,17.87
2022-10-20T13:29:31.184Z,17.14
2022-10-20T13:31:02.561Z,17.05
2022-10-20T13:32:34.223Z,17.80
2022-10-20T13:34:06.489Z,17.32
2022-10-20T13:35:38.165Z,17.14
2022-10-20T13:37:09.534Z,16.48
2022-10-20T13:38:41.251Z,17.60
2022-10-20T13:40:12.871Z,15.48
2022-10-20T13:41:45.857Z,14.60
2022-10-20T13:43:19.435Z,15.82
2022-10-20T13:44:51.030Z,19.71
2022-10-20T13:46:22.498Z,19.81
2022-10-20T13:47:53.997Z,20.35
2022-10-20T13:49:25.888Z,18.97
2022-10-20T13:50:57.563Z,17.28
2022-10-20T13:52:28.877Z,16.86
2022-10-20T13:54:05.800Z,15.97
2022-10-20T13:55:37.345Z,19.12
2022-10-20T13:57:09.446Z,17.44
2022-10-20T13:58:41.158Z,16.26
2022-10-20T14:00:12.521Z,15.10
2022-10-20T14:01:43.971Z,15.27
2022-10-20T14:03:15.431Z,14.16
2022-10-20T14:04:47.012Z,15.26
2022-10-20T14:06:23.498Z,15.54
2022-10-20T14:07:54.919Z,13.21
2022-10-20T14:09:27.802Z,14.05
2022-10-20T14:10:59.329Z,16.13
2022-10-20T14:12:36.159Z,15.48
2022-10-20T14:14:08.006Z,14.20
2022-10-20T14:16:02.862Z,14.85
2022-10-20T14:17:38.524Z,16.52
2022-10-20T14:19:11.996Z,15.56
2022-10-20T14:20:43.622Z,15.70
2022-10-20T14:22:15.309Z,15.26
2022-10-20T14:23:46.729Z,16.20
2022-10-20T14:25:18.472Z,15.60
2022-10-20T14:26:50.341Z,13.49
2022-10-20T14:28:22.475Z,16.33
2022-10-20T14:29:54.100Z,12.66
2022-10-20T14:31:26.008Z,16.45
2022-10-20T14:32:57.431Z,18.82
2022-10-20T14:34:28.752Z,16.85
2022-10-20T14:36:00.388Z,16.18
2022-10-20T14:37:31.980Z,17.50
2022-10-20T14:39:03.321Z,15.75
2022-10-20T14:40:45.857Z,14.64
2022-10-20T14:42:17.545Z,15.08
2022-10-20T14:43:55.480Z,14.61
2022-10-20T14:45:27.202Z,15.82
2022-10-20T14:46:58.844Z,14.63
2022-10-20T14:48:31.571Z,13.72
2022-10-20T14:50:03.142Z,15.05
2022-10-20T14:51:34.762Z,15.18
2022-10-20T14:53:11.215Z,13.63
2022-10-20T14:54:42.872Z,15.58
2022-10-20T14:56:17.249Z,13.74
2022-10-20T14:57:55.002Z,14.36
2022-10-20T14:59:26.381Z,13.77
2022-10-20T15:00:58.155Z,13.41
2022-10-20T15:02:29.709Z,15.13
2022-10-20T15:04:01.484Z,14.10
2022-10-20T15:05:33.070Z,15.58
2022-10-20T15:07:04.507Z,17.36
2022-10-20T15:08:36.029Z,17.92
2022-10-20T15:10:08.152Z,15.87
2022-10-20T15:11:39.844Z,11.55
2022-10-20T15:13:12.593Z,13.44
2022-10-20T15:14:54.238Z,12.53
2022-10-20T15:16:25.733Z,10.96
2022-10-20T15:17:57.278Z,14.28
2022-10-20T15:19:28.744Z,14.08
2022-10-20T15:21:00.235Z,11.81
2022-10-20T15:22:31.851Z,11.13
2022-10-20T15:24:03.278Z,13.46
2022-10-20T15:25:34.778Z,15.35
2022-10-20T15:27:06.116Z,13.96
2022-10-20T15:28:37.611Z,13.51
2022-10-20T15:30:09.153Z,13.01
2022-10-20T15:31:40.515Z,15.04
2022-10-20T15:33:12.172Z,15.52
2022-10-20T15:34:43.666Z,15.36
2022-10-20T15:36:15.356Z,17.20
2022-10-20T15:37:49.973Z,11.93
2022-10-20T15:39:21.901Z,15.57
2022-10-20T15:40:53.674Z,14.59
2022-10-20T15:42:25.500Z,16.25
2022-10-20T15:43:57.340Z,14.88
2022-10-20T15:45:28.984Z,16.26
2022-10-20T15:47:00.813Z,15.87
2022-10-20T15:48:32.234Z,14.37
2022-10-20T15:50:04.488Z,15.24
2022-10-20T15:52:07.273Z,16.02
2022-10-20T15:53:49.185Z,16.07
2022-10-20T15:55:26.474Z,20.35
2022-10-20T15:57:39.247Z,16.59
2022-10-20T15:59:21.020Z,13.40
2022-10-20T16:00:57.745Z,14.24
2022-10-20T16:02:55.653Z,15.64
2022-10-20T16:04:28.197Z,15.33
2022-10-20T16:06:00.121Z,15.12
2022-10-20T16:07:43.957Z,15.04
2022-10-20T16:09:34.247Z,17.18
2022-10-20T16:11:11.074Z,16.88
2022-10-20T16:12:42.615Z,13.96
2022-10-20T16:14:23.854Z,14.82
2022-10-20T16:15:55.548Z,15.17
2022-10-20T16:17:27.661Z,15.49
2022-10-20T16:19:04.284Z,17.60
2022-10-20T16:20:35.979Z,16.51
2022-10-20T16:22:23.938Z,15.38
2022-10-20T16:24:15.763Z,15.32
2022-10-20T16:25:52.255Z,14.09
2022-10-20T16:27:24.493Z,15.15
2022-10-20T16:28:56.282Z,15.61
2022-10-20T16:30:37.710Z,14.94
2022-10-20T16:32:19.717Z,16.14
2022-10-20T16:33:51.390Z,17.77
2022-10-20T16:35:23.321Z,18.40
2022-10-20T16:37:09.915Z,16.38
2022-10-20T16:38:41.550Z,14.56
2022-10-20T16:40:13.155Z,15.46
2022-10-20T16:41:57.700Z,18.99
2022-10-20T16:43:39.518Z,15.61
2022-10-20T16:45:16.404Z,17.11
2022-10-20T16:46:48.223Z,16.18
2022-10-20T16:48:24.631Z,18.54
2022-10-20T16:50:31.639Z,15.03
2022-10-20T16:52:03.426Z,16.33
2022-10-20T16:54:07.249Z,17.68
2022-10-20T16:56:06.403Z,16.42
2022-10-20T16:57:39.180Z,17.20
2022-10-20T16:59:11.263Z,18.20
2022-10-20T17:00:43.381Z,19.33
2022-10-20T17:02:15.192Z,18.28
2022-10-20T17:03:47.742Z,14.92
2022-10-20T17:05:20.676Z,16.50
2022-10-20T17:06:52.390Z,15.94
2022-10-20T17:08:25.599Z,17.29
2022-10-20T17:10:18.364Z,16.89
2022-10-20T17:12:04.963Z,15.50
2022-10-20T17:13:56.538Z,16.44
2022-10-20T17:15:28.455Z,17.37
2022-10-20T17:17:00.056Z,17.11
2022-10-20T17:18:33.275Z,16.47
2022-10-20T17:20:08.069Z,19.05
2022-10-20T17:21:39.873Z,16.70
2022-10-20T17:23:41.645Z,17.41
2022-10-20T17:25:14.600Z,16.40
2022-10-20T17:26:46.360Z,16.08
2022-10-20T17:28:18.204Z,16.77
2022-10-20T17:29:49.682Z,16.06
2022-10-20T17:31:31.773Z,18.55
2022-10-20T17:33:03.649Z,15.46
2022-10-20T17:34:46.124Z,15.95
2022-10-20T17:36:18.371Z,16.60
2022-10-20T17:37:50.678Z,15.60
2022-10-20T17:39:33.084Z,16.30
2022-10-20T17:41:08.968Z,16.46
2022-10-20T17:42:40.653Z,17.11
2022-10-20T17:44:27.089Z,17.65
2022-10-20T17:46:06.973Z,16.91
2022-10-20T17:47:38.629Z,16.11
2022-10-20T17:49:10.765Z,15.34
2022-10-20T17:50:42.596Z,18.25
2022-10-20T17:52:19.139Z,20.29
2022-10-20T17:53:51.436Z,17.62
2022-10-20T17:55:59.150Z,16.25
2022-10-20T17:57:52.861Z,16.60
2022-10-20T17:59:25.667Z,17.65
2022-10-20T18:01:02.931Z,16.52
2022-10-20T18:02:59.847Z,15.40
2022-10-20T18:05:05.193Z,15.36
2022-10-20T18:06:46.734Z,15.85
2022-10-20T18:08:33.469Z,14.49
2022-10-20T18:10:15.508Z,18.63
2022-10-20T18:12:12.482Z,17.94
2022-10-20T18:14:05.827Z,18.65
2022-10-20T18:15:39.807Z,17.83
2022-10-20T18:17:46.581Z,14.98
2022-10-20T18:19:33.106Z,15.44
2022-10-20T18:21:19.366Z,15.68
2022-10-20T18:23:09.554Z,13.77
2022-10-20T18:24:42.755Z,14.77
2022-10-20T18:26:37.530Z,15.74
2022-10-20T18:28:14.523Z,17.78
2022-10-20T18:29:51.250Z,15.81
2022-10-20T18:31:27.753Z,13.65
2022-10-20T18:33:15.170Z,12.34
2022-10-20T18:34:51.592Z,13.41
2022-10-20T18:36:49.129Z,17.85
2022-10-20T18:38:20.734Z,16.74
2022-10-20T18:39:52.419Z,15.96
2022-10-20T18:41:23.960Z,12.81
2022-10-20T18:43:19.419Z,14.39
2022-10-20T18:45:15.783Z,15.02
2022-10-20T18:46:47.633Z,16.01
2022-10-20T18:48:30.645Z,13.59
2022-10-20T18:50:02.400Z,13.47
2022-10-20T18:51:39.017Z,16.36
2022-10-20T18:53:10.782Z,14.99
2022-10-20T18:54:46.528Z,12.94
2022-10-20T18:56:23.276Z,13.33
2022-10-20T18:57:54.876Z,14.54
2022-10-20T18:59:27.534Z,14.00
2022-10-20T19:01:23.550Z,16.03
2022-10-20T19:02:57.972Z,14.95
2022-10-20T19:04:32.891Z,14.48
2022-10-20T19:06:04.857Z,14.86
2022-10-20T19:07:37.086Z,15.38
2022-10-20T19:09:08.965Z,13.31
2022-10-20T19:10:41.477Z,16.45
2022-10-20T19:12:14.037Z,15.78
2022-10-20T19:13:55.601Z,13.87
2022-10-20T19:15:37.094Z,12.96
2022-10-20T19:17:31.058Z,15.10
2022-10-20T19:19:06.594Z,15.86
2022-10-20T19:20:38.784Z,21.62
2022-10-20T19:22:10.355Z,23.27
2022-10-20T19:23:46.862Z,17.63
2022-10-20T19:25:19.399Z,15.40
2022-10-20T19:27:21.065Z,15.33
2022-10-20T19:28:58.590Z,15.42
2022-10-20T19:30:42.750Z,15.42
2022-10-20T19:32:14.549Z,13.23
2022-10-20T19:33:47.056Z,27.55
2022-10-20T19:35:37.035Z,19.70
2022-10-20T19:37:16.601Z,14.37
2022-10-20T19:39:03.102Z,16.96
2022-10-20T19:40:50.075Z,20.05
2022-10-20T19:42:22.090Z,18.34
2022-10-20T19:44:08.982Z,14.82
2022-10-20T19:45:40.708Z,13.69
2022-10-20T19:47:34.021Z,15.34
2022-10-20T19:49:18.457Z,16.33
2022-10-20T19:50:55.309Z,18.27
2022-10-20T19:52:27.053Z,14.73
2022-10-20T19:54:29.690Z,12.72
2022-10-20T19:56:01.110Z,14.61
2022-10-20T19:57:38.237Z,15.74
2022-10-20T19:59:28.116Z,16.10
2022-10-20T20:01:22.195Z,14.75
2022-10-20T20:03:19.114Z,14.08
2022-10-20T20:06:48.740Z,16.46
2022-10-20T20:08:21.082Z,12.85
2022-10-20T20:09:59.973Z,13.74
2022-10-20T20:11:35.619Z,12.70
2022-10-20T20:13:07.978Z,14.51
2022-10-20T20:14:39.334Z,14.95
2022-10-20T20:16:31.139Z,13.59
2022-10-20T20:18:22.775Z,14.04